sensor_id;sensor_type;location;lat;lon;timestamp;pressure;altitude;pressure_sealevel;temperature;humidity
63552;BME280;49698;48.072;7.800;2023-05-01T00:01:40;99294.56;;;12.48;75.88
63552;BME280;49698;48.072;7.800;2023-05-01T00:04:08;99283.09;;;12.43;76.16
63552;BME280;49698;48.072;7.800;2023-05-01T00:06:36;99286.97;;;12.37;76.35
63552;BME280;49698;48.072;7.800;2023-05-01T00:09:06;99282.38;;;12.37;76.34
63552;BME280;49698;48.072;7.800;2023-05-01T00:11:34;99278.78;;;12.42;76.25
63552;BME280;49698;48.072;7.800;2023-05-01T00:14:02;99280.09;;;12.44;76.34
63552;BME280;49698;48.072;7.800;2023-05-01T00:16:31;99280.88;;;12.45;76.62
63552;BME280;49698;48.072;7.800;2023-05-01T00:18:58;99278.59;;;12.52;76.32
63552;BME280;49698;48.072;7.800;2023-05-01T00:21:26;99277.69;;;12.57;75.69
63552;BME280;49698;48.072;7.800;2023-05-01T00:23:54;99272.00;;;12.58;75.70
63552;BME280;49698;48.072;7.800;2023-05-01T00:26:25;99273.91;;;12.58;75.84
63552;BME280;49698;48.072;7.800;2023-05-01T00:28:57;99270.41;;;12.57;76.00
63552;BME280;49698;48.072;7.800;2023-05-01T00:31:25;99260.72;;;12.56;75.92
63552;BME280;49698;48.072;7.800;2023-05-01T00:33:53;99258.81;;;12.57;76.27
63552;BME280;49698;48.072;7.800;2023-05-01T00:36:21;99249.63;;;12.58;76.46
63552;BME280;49698;48.072;7.800;2023-05-01T00:38:50;99250.03;;;12.65;76.52
63552;BME280;49698;48.072;7.800;2023-05-01T00:41:17;99253.72;;;12.69;76.37
63552;BME280;49698;48.072;7.800;2023-05-01T00:43:48;99246.16;;;12.71;76.23
63552;BME280;49698;48.072;7.800;2023-05-01T00:46:16;99247.75;;;12.72;76.18
63552;BME280;49698;48.072;7.800;2023-05-01T00:48:44;99247.25;;;12.70;76.20
63552;BME280;49698;48.072;7.800;2023-05-01T00:51:12;99245.44;;;12.65;76.36
63552;BME280;49698;48.072;7.800;2023-05-01T00:53:42;99241.66;;;12.66;76.65
63552;BME280;49698;48.072;7.800;2023-05-01T00:56:10;99240.25;;;12.69;76.50
63552;BME280;49698;48.072;7.800;2023-05-01T00:58:39;99235.84;;;12.73;76.03
63552;BME280;49698;48.072;7.800;2023-05-01T01:01:09;99240.97;;;12.75;75.92
63552;BME280;49698;48.072;7.800;2023-05-01T01:03:37;99235.38;;;12.71;76.31
63552;BME280;49698;48.072;7.800;2023-05-01T01:06:08;99223.28;;;12.68;76.78
63552;BME280;49698;48.072;7.800;2023-05-01T01:08:42;99221.69;;;12.67;76.92
63552;BME280;49698;48.072;7.800;2023-05-01T01:11:19;99225.50;;;12.66;76.98
63552;BME280;49698;48.072;7.800;2023-05-01T01:13:56;99218.19;;;12.67;76.84
63552;BME280;49698;48.072;7.800;2023-05-01T01:16:31;99217.09;;;12.68;76.91
63552;BME280;49698;48.072;7.800;2023-05-01T01:19:17;99209.00;;;12.68;76.94
63552;BME280;49698;48.072;7.800;2023-05-01T01:21:58;99214.69;;;12.66;76.98
63552;BME280;49698;48.072;7.800;2023-05-01T01:24:47;99210.91;;;12.67;77.06
63552;BME280;49698;48.072;7.800;2023-05-01T01:27:29;99206.91;;;12.65;77.18
63552;BME280;49698;48.072;7.800;2023-05-01T01:30:25;99198.13;;;12.59;77.28
63552;BME280;49698;48.072;7.800;2023-05-01T01:33:18;99203.78;;;12.58;77.37
63552;BME280;49698;48.072;7.800;2023-05-01T01:35:54;99202.31;;;12.52;77.79
63552;BME280;49698;48.072;7.800;2023-05-01T01:38:29;99203.72;;;12.49;77.78
63552;BME280;49698;48.072;7.800;2023-05-01T01:41:04;99203.03;;;12.43;78.12
63552;BME280;49698;48.072;7.800;2023-05-01T01:43:37;99195.72;;;12.44;78.01
63552;BME280;49698;48.072;7.800;2023-05-01T01:46:07;99203.03;;;12.43;78.24
63552;BME280;49698;48.072;7.800;2023-05-01T01:48:39;99197.91;;;12.42;78.37
63552;BME280;49698;48.072;7.800;2023-05-01T01:51:12;99201.91;;;12.44;78.24
63552;BME280;49698;48.072;7.800;2023-05-01T01:53:44;99203.31;;;12.42;78.38
63552;BME280;49698;48.072;7.800;2023-05-01T01:56:13;99196.13;;;12.37;78.18
63552;BME280;49698;48.072;7.800;2023-05-01T01:58:44;99195.00;;;12.38;78.52
63552;BME280;49698;48.072;7.800;2023-05-01T02:01:14;99193.31;;;12.42;78.27
63552;BME280;49698;48.072;7.800;2023-05-01T02:03:44;99191.72;;;12.41;78.63
63552;BME280;49698;48.072;7.800;2023-05-01T02:06:16;99191.72;;;12.41;79.03
63552;BME280;49698;48.072;7.800;2023-05-01T02:08:45;99190.25;;;12.35;79.06
63552;BME280;49698;48.072;7.800;2023-05-01T02:11:18;99191.53;;;12.24;79.48
63552;BME280;49698;48.072;7.800;2023-05-01T02:13:48;99186.84;;;12.16;80.01
63552;BME280;49698;48.072;7.800;2023-05-01T02:16:18;99189.91;;;12.09;80.31
63552;BME280;49698;48.072;7.800;2023-05-01T02:18:49;99191.81;;;12.09;80.31
63552;BME280;49698;48.072;7.800;2023-05-01T02:21:20;99195.00;;;12.11;80.59
63552;BME280;49698;48.072;7.800;2023-05-01T02:23:48;99196.00;;;12.15;80.54
63552;BME280;49698;48.072;7.800;2023-05-01T02:26:17;99200.38;;;12.11;80.58
63552;BME280;49698;48.072;7.800;2023-05-01T02:28:47;99193.19;;;12.06;80.96
63552;BME280;49698;48.072;7.800;2023-05-01T02:31:16;99197.91;;;12.01;81.50
63552;BME280;49698;48.072;7.800;2023-05-01T02:33:44;99197.06;;;12.00;81.09
63552;BME280;49698;48.072;7.800;2023-05-01T02:36:12;99194.59;;;12.04;81.30
63552;BME280;49698;48.072;7.800;2023-05-01T02:38:41;99198.28;;;12.08;80.85
63552;BME280;49698;48.072;7.800;2023-05-01T02:41:10;99190.72;;;12.10;80.75
63552;BME280;49698;48.072;7.800;2023-05-01T02:43:41;99193.31;;;12.15;80.94
63552;BME280;49698;48.072;7.800;2023-05-01T02:46:10;99193.31;;;12.15;80.72
63552;BME280;49698;48.072;7.800;2023-05-01T02:48:41;99183.53;;;12.19;80.83
63552;BME280;49698;48.072;7.800;2023-05-01T02:51:10;99186.72;;;12.21;80.89
63552;BME280;49698;48.072;7.800;2023-05-01T02:53:39;99184.31;;;12.19;80.92
63552;BME280;49698;48.072;7.800;2023-05-01T02:56:18;99185.16;;;12.20;80.87
63552;BME280;49698;48.072;7.800;2023-05-01T02:58:46;99179.25;;;12.18;80.89
63552;BME280;49698;48.072;7.800;2023-05-01T03:01:15;99183.53;;;12.19;81.04
63552;BME280;49698;48.072;7.800;2023-05-01T03:03:43;99178.75;;;12.16;81.33
63552;BME280;49698;48.072;7.800;2023-05-01T03:06:12;99179.56;;;12.16;81.01
63552;BME280;49698;48.072;7.800;2023-05-01T03:08:40;99181.44;;;12.16;81.30
63552;BME280;49698;48.072;7.800;2023-05-01T03:11:09;99174.75;;;12.13;81.01
63552;BME280;49698;48.072;7.800;2023-05-01T03:13:38;99166.94;;;12.12;80.92
63552;BME280;49698;48.072;7.800;2023-05-01T03:16:06;99170.75;;;12.11;81.17
63552;BME280;49698;48.072;7.800;2023-05-01T03:18:34;99176.44;;;12.09;81.05
63552;BME280;49698;48.072;7.800;2023-05-01T03:21:02;99168.38;;;12.09;81.07
63552;BME280;49698;48.072;7.800;2023-05-01T03:23:31;99173.75;;;12.09;81.31
63552;BME280;49698;48.072;7.800;2023-05-01T03:25:59;99183.75;;;12.09;81.17
63552;BME280;49698;48.072;7.800;2023-05-01T03:28:27;99169.75;;;12.07;81.22
63552;BME280;49698;48.072;7.800;2023-05-01T03:30:56;99172.66;;;12.10;81.18
63552;BME280;49698;48.072;7.800;2023-05-01T03:33:24;99176.66;;;12.13;80.96
63552;BME280;49698;48.072;7.800;2023-05-01T03:36:00;99168.06;;;12.11;81.20
63552;BME280;49698;48.072;7.800;2023-05-01T03:38:30;99171.84;;;12.10;81.38
63552;BME280;49698;48.072;7.800;2023-05-01T03:41:07;99174.56;;;12.10;81.52
63552;BME280;49698;48.072;7.800;2023-05-01T03:43:45;99168.38;;;12.09;81.77
63552;BME280;49698;48.072;7.800;2023-05-01T03:46:28;99167.47;;;12.14;81.80
63552;BME280;49698;48.072;7.800;2023-05-01T03:48:57;99173.06;;;12.17;81.43
63552;BME280;49698;48.072;7.800;2023-05-01T03:51:26;99182.94;;;12.22;81.35
63552;BME280;49698;48.072;7.800;2023-05-01T03:53:55;99175.97;;;12.21;81.38
63552;BME280;49698;48.072;7.800;2023-05-01T03:56:25;99177.84;;;12.20;81.40
63552;BME280;49698;48.072;7.800;2023-05-01T03:58:53;99175.97;;;12.21;81.75
63552;BME280;49698;48.072;7.800;2023-05-01T04:01:23;99176.75;;;12.21;81.72
63552;BME280;49698;48.072;7.800;2023-05-01T04:03:53;99177.53;;;12.22;81.97
63552;BME280;49698;48.072;7.800;2023-05-01T04:06:21;99180.75;;;12.24;81.80
63552;BME280;49698;48.072;7.800;2023-05-01T04:08:49;99183.44;;;12.24;81.82
63552;BME280;49698;48.072;7.800;2023-05-01T04:11:17;99185.03;;;12.25;81.83
63552;BME280;49698;48.072;7.800;2023-05-01T04:13:45;99183.94;;;12.26;81.77
63552;BME280;49698;48.072;7.800;2023-05-01T04:16:14;99183.34;;;12.29;81.93
63552;BME280;49698;48.072;7.800;2023-05-01T04:18:42;99190.31;;;12.30;82.42
63552;BME280;49698;48.072;7.800;2023-05-01T04:21:12;99183.94;;;12.26;82.40
63552;BME280;49698;48.072;7.800;2023-05-01T04:23:41;99189.91;;;12.23;82.55
63552;BME280;49698;48.072;7.800;2023-05-01T04:26:08;99188.31;;;12.22;83.01
63552;BME280;49698;48.072;7.800;2023-05-01T04:28:36;99186.16;;;12.24;82.91
63552;BME280;49698;48.072;7.800;2023-05-01T04:31:06;99191.22;;;12.26;82.86
63552;BME280;49698;48.072;7.800;2023-05-01T04:33:35;99187.72;;;12.25;82.82
63552;BME280;49698;48.072;7.800;2023-05-01T04:36:03;99190.91;;;12.27;82.61
63552;BME280;49698;48.072;7.800;2023-05-01T04:38:34;99196.41;;;12.22;83.39
63552;BME280;49698;48.072;7.800;2023-05-01T04:41:03;99186.53;;;12.17;83.63
63552;BME280;49698;48.072;7.800;2023-05-01T04:43:32;99194.09;;;12.15;84.02
63552;BME280;49698;48.072;7.800;2023-05-01T04:46:02;99195.50;;;12.13;84.52
63552;BME280;49698;48.072;7.800;2023-05-01T04:48:30;99197.09;;;12.14;84.35
63552;BME280;49698;48.072;7.800;2023-05-01T04:50:59;99205.19;;;12.14;84.59
63552;BME280;49698;48.072;7.800;2023-05-01T04:53:29;99201.91;;;12.17;84.27
63552;BME280;49698;48.072;7.800;2023-05-01T04:55:59;99201.81;;;12.22;84.19
63552;BME280;49698;48.072;7.800;2023-05-01T04:58:30;99204.09;;;12.29;83.94
63552;BME280;49698;48.072;7.800;2023-05-01T05:01:04;99210.19;;;12.34;83.76
63552;BME280;49698;48.072;7.800;2023-05-01T05:03:32;99209.00;;;12.40;83.61
63552;BME280;49698;48.072;7.800;2023-05-01T05:06:00;99208.09;;;12.45;83.28
63552;BME280;49698;48.072;7.800;2023-05-01T05:08:29;99208.09;;;12.45;83.15
63552;BME280;49698;48.072;7.800;2023-05-01T05:11:08;99219.09;;;12.48;82.79
63552;BME280;49698;48.072;7.800;2023-05-01T05:13:47;99223.09;;;12.51;82.73
63552;BME280;49698;48.072;7.800;2023-05-01T05:16:15;99218.97;;;12.54;82.51
63552;BME280;49698;48.072;7.800;2023-05-01T05:18:43;99217.06;;;12.54;82.94
63552;BME280;49698;48.072;7.800;2023-05-01T05:21:11;99216.00;;;12.55;82.63
63552;BME280;49698;48.072;7.800;2023-05-01T05:23:45;99215.22;;;12.55;82.48
63552;BME280;49698;48.072;7.800;2023-05-01T05:26:14;99222.47;;;12.54;82.59
63552;BME280;49698;48.072;7.800;2023-05-01T05:28:42;99220.09;;;12.53;82.72
63552;BME280;49698;48.072;7.800;2023-05-01T05:31:11;99227.66;;;12.51;82.78
63552;BME280;49698;48.072;7.800;2023-05-01T05:33:39;99228.69;;;12.55;82.73
63552;BME280;49698;48.072;7.800;2023-05-01T05:36:07;99222.66;;;12.58;82.63
63552;BME280;49698;48.072;7.800;2023-05-01T05:38:39;99227.78;;;12.59;82.86
63552;BME280;49698;48.072;7.800;2023-05-01T05:41:10;99228.47;;;12.65;82.83
63552;BME280;49698;48.072;7.800;2023-05-01T05:43:39;99229.47;;;12.69;82.52
63552;BME280;49698;48.072;7.800;2023-05-01T05:46:08;99228.88;;;12.72;82.58
63552;BME280;49698;48.072;7.800;2023-05-01T05:48:38;99230.44;;;12.73;82.45
63552;BME280;49698;48.072;7.800;2023-05-01T05:51:06;99236.16;;;12.71;82.73
63552;BME280;49698;48.072;7.800;2023-05-01T05:53:35;99240.25;;;12.69;82.86
63552;BME280;49698;48.072;7.800;2023-05-01T05:56:03;99240.56;;;12.67;82.97
63552;BME280;49698;48.072;7.800;2023-05-01T05:58:31;99237.06;;;12.67;82.93
63552;BME280;49698;48.072;7.800;2023-05-01T06:01:00;99238.16;;;12.66;83.18
63552;BME280;49698;48.072;7.800;2023-05-01T06:03:29;99242.75;;;12.65;83.56
63552;BME280;49698;48.072;7.800;2023-05-01T06:06:00;99238.75;;;12.63;83.70
63552;BME280;49698;48.072;7.800;2023-05-01T06:08:28;99242.06;;;12.60;84.12
63552;BME280;49698;48.072;7.800;2023-05-01T06:10:56;99241.06;;;12.56;84.68
63552;BME280;49698;48.072;7.800;2023-05-01T06:13:26;99233.66;;;12.47;85.47
63552;BME280;49698;48.072;7.800;2023-05-01T06:15:54;99244.03;;;12.40;86.11
63552;BME280;49698;48.072;7.800;2023-05-01T06:18:24;99235.56;;;12.33;87.05
63552;BME280;49698;48.072;7.800;2023-05-01T06:20:52;99243.22;;;12.26;87.63
63552;BME280;49698;48.072;7.800;2023-05-01T06:23:20;99243.31;;;12.21;88.26
63552;BME280;49698;48.072;7.800;2023-05-01T06:26:11;99248.19;;;12.19;89.45
63552;BME280;49698;48.072;7.800;2023-05-01T06:28:39;99239.09;;;12.15;89.70
63552;BME280;49698;48.072;7.800;2023-05-01T06:31:07;99245.09;;;12.12;90.64
63552;BME280;49698;48.072;7.800;2023-05-01T06:33:42;99242.38;;;12.12;90.99
63552;BME280;49698;48.072;7.800;2023-05-01T06:36:20;99237.00;;;12.12;91.10
63552;BME280;49698;48.072;7.800;2023-05-01T06:38:47;99238.84;;;12.16;90.74
63552;BME280;49698;48.072;7.800;2023-05-01T06:41:15;99243.59;;;12.19;90.37
63552;BME280;49698;48.072;7.800;2023-05-01T06:43:44;99247.59;;;12.22;90.43
63552;BME280;49698;48.072;7.800;2023-05-01T06:46:14;99249.13;;;12.28;90.19
63552;BME280;49698;48.072;7.800;2023-05-01T06:48:43;99247.72;;;12.31;90.48
63552;BME280;49698;48.072;7.800;2023-05-01T06:51:13;99253.63;;;12.33;90.53
63552;BME280;49698;48.072;7.800;2023-05-01T06:53:41;99260.50;;;12.39;89.99
63552;BME280;49698;48.072;7.800;2023-05-01T06:56:09;99271.78;;;12.41;89.72
63552;BME280;49698;48.072;7.800;2023-05-01T06:58:37;99266.63;;;12.44;89.64
63552;BME280;49698;48.072;7.800;2023-05-01T07:01:05;99270.78;;;12.51;89.67
63552;BME280;49698;48.072;7.800;2023-05-01T07:03:33;99274.53;;;12.55;89.68
63552;BME280;49698;48.072;7.800;2023-05-01T07:06:03;99282.78;;;12.58;89.59
63552;BME280;49698;48.072;7.800;2023-05-01T07:08:31;99279.00;;;12.59;89.91
63552;BME280;49698;48.072;7.800;2023-05-01T07:10:59;99273.63;;;12.59;89.95
63552;BME280;49698;48.072;7.800;2023-05-01T07:13:27;99279.69;;;12.65;89.71
63552;BME280;49698;48.072;7.800;2023-05-01T07:15:55;99276.63;;;12.71;89.38
63552;BME280;49698;48.072;7.800;2023-05-01T07:18:23;99275.91;;;12.80;89.07
63552;BME280;49698;48.072;7.800;2023-05-01T07:20:51;99274.41;;;12.87;88.59
63552;BME280;49698;48.072;7.800;2023-05-01T07:23:20;99271.31;;;12.94;88.57
63552;BME280;49698;48.072;7.800;2023-05-01T07:25:49;99264.41;;;13.02;88.13
63552;BME280;49698;48.072;7.800;2023-05-01T07:28:17;99267.00;;;13.07;88.14
63552;BME280;49698;48.072;7.800;2023-05-01T07:30:46;99267.97;;;13.11;88.23
63552;BME280;49698;48.072;7.800;2023-05-01T07:33:14;99269.97;;;13.19;88.03
63552;BME280;49698;48.072;7.800;2023-05-01T07:35:42;99271.00;;;13.23;87.73
63552;BME280;49698;48.072;7.800;2023-05-01T07:38:10;99267.47;;;13.22;87.80
63552;BME280;49698;48.072;7.800;2023-05-01T07:40:40;99270.28;;;13.17;87.78
63552;BME280;49698;48.072;7.800;2023-05-01T07:43:08;99270.56;;;13.16;88.34
63552;BME280;49698;48.072;7.800;2023-05-01T07:45:37;99265.16;;;13.16;88.50
63552;BME280;49698;48.072;7.800;2023-05-01T07:48:05;99269.78;;;13.15;88.70
63552;BME280;49698;48.072;7.800;2023-05-01T07:50:33;99273.25;;;13.16;88.66
63552;BME280;49698;48.072;7.800;2023-05-01T07:53:02;99270.56;;;13.16;88.75
63552;BME280;49698;48.072;7.800;2023-05-01T07:55:30;99266.00;;;13.16;88.61
63552;BME280;49698;48.072;7.800;2023-05-01T07:57:59;99267.78;;;13.21;88.75
63552;BME280;49698;48.072;7.800;2023-05-01T08:00:27;99269.38;;;13.22;88.97
63552;BME280;49698;48.072;7.800;2023-05-01T08:02:56;99273.88;;;13.27;89.11
63552;BME280;49698;48.072;7.800;2023-05-01T08:05:24;99267.09;;;13.29;89.53
63552;BME280;49698;48.072;7.800;2023-05-01T08:07:52;99273.28;;;13.30;89.68
63552;BME280;49698;48.072;7.800;2023-05-01T08:10:20;99272.69;;;13.33;89.59
63552;BME280;49698;48.072;7.800;2023-05-01T08:12:47;99276.38;;;13.37;89.45
63552;BME280;49698;48.072;7.800;2023-05-01T08:15:17;99274.25;;;13.48;89.40
63552;BME280;49698;48.072;7.800;2023-05-01T08:17:46;99270.69;;;13.61;88.66
63552;BME280;49698;48.072;7.800;2023-05-01T08:20:14;99262.25;;;13.62;88.06
63552;BME280;49698;48.072;7.800;2023-05-01T08:22:42;99270.28;;;13.67;88.51
63552;BME280;49698;48.072;7.800;2023-05-01T08:25:10;99271.44;;;13.75;88.14
63552;BME280;49698;48.072;7.800;2023-05-01T08:27:38;99274.63;;;13.77;88.11
63552;BME280;49698;48.072;7.800;2023-05-01T08:30:07;99278.81;;;13.83;87.70
63552;BME280;49698;48.072;7.800;2023-05-01T08:32:36;99275.97;;;13.88;87.67
63552;BME280;49698;48.072;7.800;2023-05-01T08:35:05;99281.13;;;13.99;87.24
63552;BME280;49698;48.072;7.800;2023-05-01T08:37:33;99278.66;;;14.11;86.67
63552;BME280;49698;48.072;7.800;2023-05-01T08:40:01;99274.59;;;14.22;86.44
63552;BME280;49698;48.072;7.800;2023-05-01T08:42:34;99268.28;;;14.35;85.90
63552;BME280;49698;48.072;7.800;2023-05-01T08:45:04;99279.06;;;14.49;85.54
63552;BME280;49698;48.072;7.800;2023-05-01T08:47:36;99278.19;;;14.71;84.47
63552;BME280;49698;48.072;7.800;2023-05-01T08:50:08;99275.38;;;14.93;83.51
63552;BME280;49698;48.072;7.800;2023-05-01T08:52:39;99272.75;;;15.11;82.89
63552;BME280;49698;48.072;7.800;2023-05-01T08:55:11;99276.28;;;15.37;82.31
63552;BME280;49698;48.072;7.800;2023-05-01T08:57:43;99278.97;;;15.63;81.38
63552;BME280;49698;48.072;7.800;2023-05-01T09:00:16;99275.34;;;15.85;80.59
63552;BME280;49698;48.072;7.800;2023-05-01T09:02:47;99269.59;;;15.96;79.85
63552;BME280;49698;48.072;7.800;2023-05-01T09:05:16;99270.38;;;16.05;79.42
63552;BME280;49698;48.072;7.800;2023-05-01T09:07:45;99271.44;;;16.21;78.30
63552;BME280;49698;48.072;7.800;2023-05-01T09:10:15;99262.78;;;16.36;78.01
63552;BME280;49698;48.072;7.800;2023-05-01T09:12:46;99264.66;;;16.45;77.39
63552;BME280;49698;48.072;7.800;2023-05-01T09:15:17;99265.13;;;16.55;77.47
63552;BME280;49698;48.072;7.800;2023-05-01T09:17:46;99268.44;;;16.61;76.64
63552;BME280;49698;48.072;7.800;2023-05-01T09:20:15;99265.41;;;16.62;76.95
63552;BME280;49698;48.072;7.800;2023-05-01T09:22:45;99264.88;;;16.78;76.08
63552;BME280;49698;48.072;7.800;2023-05-01T09:25:14;99266.19;;;17.01;75.36
63552;BME280;49698;48.072;7.800;2023-05-01T09:27:43;99263.19;;;17.24;73.90
63552;BME280;49698;48.072;7.800;2023-05-01T09:30:29;99263.19;;;17.45;72.44
63552;BME280;49698;48.072;7.800;2023-05-01T09:33:06;99263.63;;;17.68;71.75
63552;BME280;49698;48.072;7.800;2023-05-01T09:35:50;99263.84;;;17.83;71.08
63552;BME280;49698;48.072;7.800;2023-05-01T09:38:20;99271.69;;;17.85;70.61
63552;BME280;49698;48.072;7.800;2023-05-01T09:40:49;99267.88;;;17.98;71.06
63552;BME280;49698;48.072;7.800;2023-05-01T09:43:24;99263.50;;;18.18;70.31
63552;BME280;49698;48.072;7.800;2023-05-01T09:46:03;99269.09;;;18.46;68.63
63552;BME280;49698;48.072;7.800;2023-05-01T09:48:36;99266.50;;;18.62;67.25
63552;BME280;49698;48.072;7.800;2023-05-01T09:51:19;99272.31;;;18.73;67.12
63552;BME280;49698;48.072;7.800;2023-05-01T09:53:47;99262.22;;;18.73;66.70
63552;BME280;49698;48.072;7.800;2023-05-01T09:56:16;99263.16;;;18.90;66.39
63552;BME280;49698;48.072;7.800;2023-05-01T09:58:44;99257.00;;;19.05;65.83
63552;BME280;49698;48.072;7.800;2023-05-01T10:01:13;99259.13;;;19.12;65.88
63552;BME280;49698;48.072;7.800;2023-05-01T10:03:44;99259.00;;;19.20;65.38
63552;BME280;49698;48.072;7.800;2023-05-01T10:06:25;99251.97;;;19.19;64.81
63552;BME280;49698;48.072;7.800;2023-05-01T10:08:54;99254.69;;;19.19;65.04
63552;BME280;49698;48.072;7.800;2023-05-01T10:11:23;99255.16;;;19.21;63.99
63552;BME280;49698;48.072;7.800;2023-05-01T10:14:05;99259.00;;;19.20;64.58
63552;BME280;49698;48.072;7.800;2023-05-01T10:16:35;99249.47;;;19.26;64.38
63552;BME280;49698;48.072;7.800;2023-05-01T10:19:05;99249.34;;;19.23;64.08
63552;BME280;49698;48.072;7.800;2023-05-01T10:21:33;99249.25;;;19.19;64.40
63552;BME280;49698;48.072;7.800;2023-05-01T10:24:02;99248.09;;;19.20;63.08
63552;BME280;49698;48.072;7.800;2023-05-01T10:26:31;99253.13;;;19.18;62.77
63552;BME280;49698;48.072;7.800;2023-05-01T10:29:00;99257.22;;;19.24;62.62
63552;BME280;49698;48.072;7.800;2023-05-01T10:31:29;99259.91;;;19.37;61.47
63552;BME280;49698;48.072;7.800;2023-05-01T10:33:59;99254.50;;;19.52;60.73
63552;BME280;49698;48.072;7.800;2023-05-01T10:36:34;99260.97;;;19.60;60.66
63552;BME280;49698;48.072;7.800;2023-05-01T10:39:03;99250.06;;;19.60;60.52
63552;BME280;49698;48.072;7.800;2023-05-01T10:42:00;99252.97;;;19.79;59.25
63552;BME280;49698;48.072;7.800;2023-05-01T10:44:29;99238.31;;;20.00;59.00
63552;BME280;49698;48.072;7.800;2023-05-01T10:46:57;99246.84;;;19.98;58.30
63552;BME280;49698;48.072;7.800;2023-05-01T10:50:04;99238.97;;;19.81;57.67
63552;BME280;49698;48.072;7.800;2023-05-01T10:55:36;99232.25;;;19.78;58.04
63552;BME280;49698;48.072;7.800;2023-05-01T10:58:04;99225.16;;;19.90;57.36
63552;BME280;49698;48.072;7.800;2023-05-01T11:00:32;99232.59;;;20.05;56.77
63552;BME280;49698;48.072;7.800;2023-05-01T11:03:35;99227.19;;;20.37;56.79
63552;BME280;49698;48.072;7.800;2023-05-01T11:06:05;99226.44;;;20.71;54.98
63552;BME280;49698;48.072;7.800;2023-05-01T11:08:34;99225.28;;;20.88;54.84
63552;BME280;49698;48.072;7.800;2023-05-01T11:14:08;99220.63;;;20.89;54.24
63552;BME280;49698;48.072;7.800;2023-05-01T11:16:40;99219.31;;;20.83;54.00
63552;BME280;49698;48.072;7.800;2023-05-01T11:19:10;99215.63;;;20.75;54.72
63552;BME280;49698;48.072;7.800;2023-05-01T11:21:38;99213.53;;;20.68;55.38
63552;BME280;49698;48.072;7.800;2023-05-01T11:24:08;99215.91;;;20.70;54.90
63552;BME280;49698;48.072;7.800;2023-05-01T11:26:37;99207.16;;;20.80;54.72
63552;BME280;49698;48.072;7.800;2023-05-01T11:29:06;99206.72;;;20.78;53.68
63552;BME280;49698;48.072;7.800;2023-05-01T11:31:36;99203.47;;;20.72;53.32
63552;BME280;49698;48.072;7.800;2023-05-01T11:34:04;99207.94;;;20.81;53.58
63552;BME280;49698;48.072;7.800;2023-05-01T11:36:46;99201.94;;;20.91;53.40
63552;BME280;49698;48.072;7.800;2023-05-01T11:39:15;99197.69;;;20.93;52.80
63552;BME280;49698;48.072;7.800;2023-05-01T11:41:44;99193.75;;;20.91;52.31
63552;BME280;49698;48.072;7.800;2023-05-01T11:44:14;99188.41;;;20.98;52.69
63552;BME280;49698;48.072;7.800;2023-05-01T11:46:44;99184.19;;;21.00;52.25
63552;BME280;49698;48.072;7.800;2023-05-01T11:49:12;99180.81;;;21.07;53.33
63552;BME280;49698;48.072;7.800;2023-05-01T11:51:40;99180.13;;;21.30;51.92
63552;BME280;49698;48.072;7.800;2023-05-01T11:54:09;99174.66;;;21.68;50.75
63552;BME280;49698;48.072;7.800;2023-05-01T11:56:39;99179.44;;;22.17;49.28
63552;BME280;49698;48.072;7.800;2023-05-01T11:59:10;99171.50;;;22.58;46.60
63552;BME280;49698;48.072;7.800;2023-05-01T12:01:39;99168.13;;;22.95;46.38
63552;BME280;49698;48.072;7.800;2023-05-01T12:04:12;99167.53;;;23.09;46.02
63552;BME280;49698;48.072;7.800;2023-05-01T12:06:41;99166.03;;;23.15;45.64
63552;BME280;49698;48.072;7.800;2023-05-01T12:09:15;99161.25;;;23.42;45.09
63552;BME280;49698;48.072;7.800;2023-05-01T12:11:44;99169.91;;;23.44;43.28
63552;BME280;49698;48.072;7.800;2023-05-01T12:14:13;99174.53;;;23.06;43.60
63552;BME280;49698;48.072;7.800;2023-05-01T12:16:42;99170.28;;;22.56;43.76
63552;BME280;49698;48.072;7.800;2023-05-01T12:19:13;99178.63;;;21.94;45.34
63552;BME280;49698;48.072;7.800;2023-05-01T12:21:41;99185.31;;;21.35;45.90
63552;BME280;49698;48.072;7.800;2023-05-01T12:24:10;99188.34;;;20.94;47.19
63552;BME280;49698;48.072;7.800;2023-05-01T12:26:38;99186.22;;;20.68;48.19
63552;BME280;49698;48.072;7.800;2023-05-01T12:29:07;99186.25;;;20.52;49.51
63552;BME280;49698;48.072;7.800;2023-05-01T12:31:36;99193.34;;;20.41;49.78
63552;BME280;49698;48.072;7.800;2023-05-01T12:34:06;99198.09;;;20.28;49.55
63552;BME280;49698;48.072;7.800;2023-05-01T12:36:36;99197.22;;;20.24;49.87
63552;BME280;49698;48.072;7.800;2023-05-01T12:39:05;99190.09;;;20.20;48.79
63552;BME280;49698;48.072;7.800;2023-05-01T12:41:35;99198.47;;;20.11;48.97
63552;BME280;49698;48.072;7.800;2023-05-01T12:44:17;99199.16;;;20.08;49.21
63552;BME280;49698;48.072;7.800;2023-05-01T12:46:52;99195.81;;;20.15;49.23
63552;BME280;49698;48.072;7.800;2023-05-01T12:49:21;99203.66;;;20.32;49.53
63552;BME280;49698;48.072;7.800;2023-05-01T12:51:52;99202.25;;;20.54;48.70
63552;BME280;49698;48.072;7.800;2023-05-01T12:54:21;99199.59;;;20.73;48.16
63552;BME280;49698;48.072;7.800;2023-05-01T12:56:50;99202.53;;;21.00;47.90
63552;BME280;49698;48.072;7.800;2023-05-01T12:59:20;99194.72;;;21.37;47.43
63552;BME280;49698;48.072;7.800;2023-05-01T13:01:55;99209.69;;;21.63;46.72
63552;BME280;49698;48.072;7.800;2023-05-01T13:04:25;99193.84;;;21.72;47.02
63552;BME280;49698;48.072;7.800;2023-05-01T13:06:55;99198.19;;;21.73;46.93
63552;BME280;49698;48.072;7.800;2023-05-01T13:09:25;99200.28;;;21.60;45.96
63552;BME280;49698;48.072;7.800;2023-05-01T13:11:57;99198.69;;;21.59;46.89
63552;BME280;49698;48.072;7.800;2023-05-01T13:14:27;99202.72;;;21.65;46.79
63552;BME280;49698;48.072;7.800;2023-05-01T13:16:56;99200.84;;;21.69;47.65
63552;BME280;49698;48.072;7.800;2023-05-01T13:19:24;99206.47;;;21.57;47.46
63552;BME280;49698;48.072;7.800;2023-05-01T13:21:56;99198.28;;;21.38;48.26
63552;BME280;49698;48.072;7.800;2023-05-01T13:24:34;99198.38;;;21.25;48.73